Time;durP1;ratioP1;P1;durP2;ratioP2;P2;SDS_P1;SDS_P2;PMS_P1;PMS_P2;Temp;Humidity;BMP_temperature;BMP_pressure;BME280_temperature;BME280_humidity;BME280_pressure;Samples;Min_cycle;Max_cycle;Signal;HPM_P1;HPM_P2
2021/12/04 00:00:50;;;;;;;7.07;4.63;;;;;;;-3.03;71.56;99030.44;5081912;23;20212;-83
2021/12/04 00:03:22;;;;;;;5.63;4.30;;;;;;;-2.99;71.51;99051.94;5035146;28;20221;-83
2021/12/04 00:06:13;;;;;;;6.60;4.80;;;;;;;-3.16;72.44;99036.03;5063167;23;20232;-84
2021/12/04 00:09:10;;;;;;;6.77;5.10;;;;;;;-3.14;72.65;99041.97;5123376;23;20290;-83
2021/12/04 00:12:09;;;;;;;6.87;5.07;;;;;;;-3.31;72.70;99034.06;5048632;23;20222;-84
2021/12/04 00:15:08;;;;;;;7.23;4.60;;;;;;;-3.38;72.84;99028.59;5074941;28;20229;-83
2021/12/04 00:17:38;;;;;;;6.17;4.57;;;;;;;-3.45;73.19;99024.09;5074849;28;20213;-84
2021/12/04 00:20:14;;;;;;;5.47;4.37;;;;;;;-3.50;73.44;99018.47;5079086;23;20224;-83
2021/12/04 00:22:44;;;;;;;7.80;4.93;;;;;;;-3.42;72.97;99031.63;5037440;28;20182;-86
2021/12/04 00:25:11;;;;;;;8.03;4.90;;;;;;;-3.59;73.38;99020.94;5036897;28;20316;-89
2021/12/04 00:27:40;;;;;;;7.13;5.00;;;;;;;-3.67;73.72;99015.63;5018400;28;20249;-86
2021/12/04 00:30:09;;;;;;;9.33;5.30;;;;;;;-3.73;74.08;99010.94;5032021;28;20241;-89
2021/12/04 00:32:40;;;;;;;7.03;5.10;;;;;;;-3.85;74.15;99000.81;5030410;28;20285;-88
2021/12/04 00:35:20;;;;;;;8.30;5.47;;;;;;;-3.94;74.39;98989.41;5028898;28;20234;-87
2021/12/04 00:38:16;;;;;;;6.00;4.83;;;;;;;-3.95;74.66;98997.41;5008945;28;20233;-91
2021/12/04 00:49:08;;;;;;;8.67;5.67;;;;;;;-4.02;75.96;98981.47;5005457;28;20234;-96
2021/12/04 00:51:39;;;;;;;8.83;6.00;;;;;;;-4.04;75.94;98978.16;5004246;28;20233;-92
2021/12/04 00:54:09;;;;;;;7.60;5.20;;;;;;;-4.04;75.68;98979.00;5001851;28;20523;-92
2021/12/04 00:56:41;;;;;;;8.57;5.77;;;;;;;-3.95;75.83;98976.47;5019378;28;20226;-93
2021/12/04 00:59:09;;;;;;;6.77;4.90;;;;;;;-3.88;75.96;98959.25;5002927;28;20234;-95
2021/12/04 01:01:38;;;;;;;7.23;5.27;;;;;;;-3.81;75.39;98955.06;5002959;28;20325;-88
2021/12/04 01:04:29;;;;;;;7.40;4.93;;;;;;;-3.74;75.07;98964.00;5019178;28;20316;-93
2021/12/04 01:06:57;;;;;;;8.23;5.03;;;;;;;-3.63;75.15;98958.53;5019980;28;20268;-91
2021/12/04 01:09:25;;;;;;;6.27;4.67;;;;;;;-3.50;74.53;98950.38;5019763;28;20229;-95
2021/12/04 01:11:53;;;;;;;5.40;4.57;;;;;;;-3.38;74.41;98959.66;5003982;28;20320;-95
2021/12/04 01:14:24;;;;;;;6.80;4.40;;;;;;;-3.30;73.81;98970.22;5006196;28;20542;-90
2021/12/04 01:16:51;;;;;;;7.53;4.17;;;;;;;-3.35;73.11;98943.63;5009450;28;20238;-95
2021/12/04 01:19:19;;;;;;;5.10;4.20;;;;;;;-3.25;72.58;98947.84;5010517;28;20260;-91
2021/12/04 01:21:47;;;;;;;5.63;4.30;;;;;;;-3.20;72.67;98955.25;5013910;28;20230;-91
2021/12/04 01:24:15;;;;;;;6.17;4.23;;;;;;;-3.21;72.27;98951.81;5027955;28;20245;-93
2021/12/04 01:26:46;;;;;;;5.23;4.07;;;;;;;-3.14;72.62;98950.25;5002392;28;20222;-91
2021/12/04 01:29:18;;;;;;;5.60;3.97;;;;;;;-3.09;72.66;98943.72;5006118;28;20685;-84
2021/12/04 01:32:07;;;;;;;5.27;3.93;;;;;;;-3.09;72.36;98938.50;5038042;28;20439;-86
2021/12/04 01:34:52;;;;;;;6.00;3.80;;;;;;;-3.19;72.08;98926.28;5057057;28;20220;-84
2021/12/04 01:37:18;;;;;;;5.60;4.43;;;;;;;-3.17;71.96;98926.94;5022214;28;20241;-84
2021/12/04 01:39:45;;;;;;;4.87;3.87;;;;;;;-3.22;71.88;98905.63;5040202;28;20182;-84
2021/12/04 01:42:35;;;;;;;6.63;4.40;;;;;;;-3.18;71.85;98921.88;5034778;23;20239;-83
2021/12/04 01:45:21;;;;;;;6.40;4.10;;;;;;;-3.28;72.38;98916.72;5036558;23;22058;-83
2021/12/04 01:48:14;;;;;;;5.53;4.30;;;;;;;-3.38;72.70;98902.84;5061091;28;20190;-84
2021/12/04 01:50:42;;;;;;;6.70;4.40;;;;;;;-3.43;72.72;98894.63;5076521;28;20207;-83
2021/12/04 01:53:08;;;;;;;5.30;4.20;;;;;;;-3.51;72.73;98886.69;5059282;28;20244;-84
2021/12/04 01:55:38;;;;;;;5.20;3.73;;;;;;;-3.48;72.78;98896.03;5076156;28;20218;-83
2021/12/04 01:58:05;;;;;;;5.30;3.67;;;;;;;-3.56;72.78;98897.59;5058410;28;20209;-84
2021/12/04 02:00:36;;;;;;;5.20;3.93;;;;;;;-3.60;72.57;98888.41;5041528;28;20273;-94
2021/12/04 02:03:07;;;;;;;5.83;4.27;;;;;;;-3.61;72.54;98878.06;5037153;28;20225;-89
2021/12/04 02:05:38;;;;;;;6.43;4.40;;;;;;;-3.68;72.64;98880.44;5050515;28;20209;-93
2021/12/04 02:08:12;;;;;;;6.50;4.93;;;;;;;-3.74;73.12;98864.53;5045073;28;20632;-93
2021/12/04 02:10:39;;;;;;;5.93;4.33;;;;;;;-3.77;73.08;98862.19;5029179;28;20328;-92
2021/12/04 02:13:06;;;;;;;7.40;4.73;;;;;;;-3.80;73.77;98841.56;5045225;28;20600;-94
2021/12/04 02:15:34;;;;;;;6.47;4.70;;;;;;;-3.87;73.20;98837.88;5047569;28;20326;-90
2021/12/04 02:18:05;;;;;;;6.57;4.57;;;;;;;-3.74;73.24;98840.97;5059045;28;20224;-87
2021/12/04 02:20:33;;;;;;;8.00;4.83;;;;;;;-3.90;73.46;98822.47;5026995;28;20256;-95
2021/12/04 02:23:02;;;;;;;6.17;4.53;;;;;;;-3.83;73.02;98826.97;5042023;28;20255;-96
2021/12/04 02:25:30;;;;;;;6.53;4.70;;;;;;;-3.86;72.97;98835.09;5026526;28;20229;-86
2021/12/04 02:27:58;;;;;;;6.87;4.23;;;;;;;-3.92;73.78;98830.47;5056651;28;20308;-93
2021/12/04 02:30:29;;;;;;;6.17;4.73;;;;;;;-3.93;73.69;98835.84;5038865;28;20243;-92
2021/12/04 02:32:56;;;;;;;5.63;4.40;;;;;;;-4.10;73.67;98806.06;5055571;28;20237;-95
2021/12/04 02:35:25;;;;;;;7.40;4.50;;;;;;;-4.08;73.53;98810.19;5038796;28;20308;-95
2021/12/04 02:37:53;;;;;;;6.53;4.83;;;;;;;-4.04;73.49;98815.94;5055100;28;20225;-92
2021/12/04 02:40:22;;;;;;;7.10;4.70;;;;;;;-4.09;73.78;98805.09;5038020;28;20312;-94
2021/12/04 02:42:49;;;;;;;6.63;4.73;;;;;;;-4.00;73.82;98806.81;5037804;28;20244;-88
2021/12/04 02:45:17;;;;;;;6.17;4.60;;;;;;;-4.03;73.72;98805.34;5037055;28;20329;-93
2021/12/04 02:47:44;;;;;;;9.13;5.00;;;;;;;-4.05;73.86;98798.59;5038044;28;20320;-92
2021/12/04 02:50:12;;;;;;;7.87;5.00;;;;;;;-4.15;74.27;98789.97;5054547;28;20259;-95
2021/12/04 02:52:39;;;;;;;6.37;4.63;;;;;;;-4.18;74.51;98796.34;5040604;28;20308;-96
2021/12/04 02:55:07;;;;;;;6.33;4.30;;;;;;;-4.16;74.69;98793.59;5040963;28;20325;-94
2021/12/04 02:57:37;;;;;;;7.40;4.77;;;;;;;-4.19;74.26;98783.41;5024554;28;20601;-95
2021/12/04 03:00:05;;;;;;;4.90;4.13;;;;;;;-4.20;74.49;98795.66;5040723;28;20244;-88
2021/12/04 03:02:32;;;;;;;6.33;4.67;;;;;;;-4.25;74.91;98792.69;5024047;28;20264;-91
2021/12/04 03:05:02;;;;;;;5.13;4.23;;;;;;;-4.33;75.20;98761.19;5057118;28;20237;-92
2021/12/04 03:07:29;;;;;;;5.80;3.90;;;;;;;-4.27;75.52;98785.94;5040705;28;20253;-96
2021/12/04 03:09:55;;;;;;;6.13;4.27;;;;;;;-4.23;75.59;98779.44;5040466;28;20236;-95
2021/12/04 03:12:23;;;;;;;7.77;4.60;;;;;;;-4.18;75.60;98792.91;5039408;28;20602;-96
2021/12/04 03:14:53;;;;;;;6.87;4.40;;;;;;;-4.25;75.36;98769.13;5042183;28;20684;-94
2021/12/04 03:17:23;;;;;;;7.10;4.80;;;;;;;-4.17;75.71;98787.53;5056899;28;20248;-92
2021/12/04 03:19:53;;;;;;;6.50;4.70;;;;;;;-4.27;75.49;98759.78;5040745;28;20332;-96
2021/12/04 03:22:23;;;;;;;9.03;5.80;;;;;;;-4.11;75.48;98788.75;5039897;28;20221;-94
2021/12/04 03:24:51;;;;;;;7.20;5.20;;;;;;;-4.10;75.27;98785.94;5040461;28;20255;-96
2021/12/04 03:27:24;;;;;;;7.03;4.97;;;;;;;-4.09;75.28;98773.69;5056705;28;20233;-93
2021/12/04 03:30:04;;;;;;;5.97;5.23;;;;;;;-4.17;75.37;98752.69;5040224;28;20316;-96
2021/12/04 03:32:55;;;;;;;10.00;7.20;;;;;;;-4.17;75.32;98758.75;5056142;28;20312;-92
2021/12/04 03:40:02;;;;;;;7.73;6.93;;;;;;;-4.17;75.56;98747.47;5056768;28;20287;-92
2021/12/04 03:40:59;;;;;;;8.60;7.07;;;;;;;-4.06;74.18;98736.78;5041693;28;20225;-89
2021/12/04 03:43:27;;;;;;;7.57;6.10;;;;;;;-4.13;74.77;98726.09;5039807;28;20317;-86
2021/12/04 03:46:00;;;;;;;7.80;5.67;;;;;;;-4.15;75.21;98708.88;5055656;28;20252;-85
2021/12/04 03:51:04;;;;;;;7.07;5.53;;;;;;;-4.15;76.35;98695.81;5038816;28;20894;-94
2021/12/04 03:53:31;;;;;;;6.37;5.67;;;;;;;-4.23;76.52;98680.03;5055569;28;20316;-85
2021/12/04 03:55:58;;;;;;;8.13;5.63;;;;;;;-4.26;76.50;98672.50;5038718;28;20259;-87
2021/12/04 03:58:25;;;;;;;6.50;5.13;;;;;;;-4.27;76.17;98684.75;5021772;28;20233;-84
2021/12/04 04:00:53;;;;;;;7.43;4.83;;;;;;;-4.37;76.10;98662.25;5038847;28;20228;-87
2021/12/04 04:03:20;;;;;;;6.30;4.40;;;;;;;-4.42;76.43;98660.09;5039144;28;20233;-91
2021/12/04 04:05:47;;;;;;;7.00;5.03;;;;;;;-4.43;76.72;98662.88;5039123;28;20610;-88
2021/12/04 04:08:15;;;;;;;6.17;4.30;;;;;;;-4.31;76.83;98674.75;5038547;28;20232;-85
2021/12/04 04:10:43;;;;;;;6.63;4.57;;;;;;;-4.40;76.31;98657.31;5028353;28;20229;-88
2021/12/04 04:13:12;;;;;;;7.47;5.00;;;;;;;-4.45;76.25;98655.97;5054381;28;20278;-90
2021/12/04 04:15:40;;;;;;;6.77;4.60;;;;;;;-4.38;76.51;98644.91;5054728;28;20320;-86
2021/12/04 04:18:07;;;;;;;5.87;4.40;;;;;;;-4.41;77.22;98630.34;5037581;28;20233;-85
2021/12/04 04:20:35;;;;;;;6.83;4.23;;;;;;;-4.46;76.37;98632.59;5054382;28;20229;-90
2021/12/04 04:23:03;;;;;;;5.90;4.20;;;;;;;-4.42;76.14;98639.16;5054318;28;20295;-89
2021/12/04 04:25:31;;;;;;;7.20;4.73;;;;;;;-4.45;76.84;98629.84;5037769;28;20274;-88
2021/12/04 04:27:57;;;;;;;6.53;4.10;;;;;;;-4.49;76.56;98625.88;5037703;28;20295;-86
2021/12/04 04:30:26;;;;;;;5.50;4.23;;;;;;;-4.48;76.54;98619.66;5037621;28;20633;-84
2021/12/04 04:32:54;;;;;;;5.70;4.40;;;;;;;-4.55;77.12;98599.50;5038006;28;20322;-85
2021/12/04 04:35:24;;;;;;;6.00;4.30;;;;;;;-4.55;77.22;98584.63;5054302;28;20513;-84
2021/12/04 04:39:04;;;;;;;6.93;4.37;;;;;;;-4.53;77.06;98582.72;5054578;28;20327;-88
2021/12/04 04:57:49;;;;;;;5.23;3.87;;;;;;;-4.16;78.31;98564.22;5033591;28;20234;-88
2021/12/04 05:00:27;;;;;;;4.37;3.87;;;;;;;-4.11;77.92;98558.53;5039050;28;20233;-89
2021/12/04 05:11:20;;;;;;;5.73;4.10;;;;;;;-3.80;78.46;98590.28;5039860;28;20222;-91
2021/12/04 05:13:47;;;;;;;6.23;4.03;;;;;;;-3.82;78.22;98579.13;5037254;28;20229;-92
2021/12/04 05:16:19;;;;;;;5.23;4.00;;;;;;;-3.82;78.69;98573.91;5053707;28;20255;-90
2021/12/04 05:18:58;;;;;;;5.33;3.87;;;;;;;-3.78;79.09;98576.06;5038869;28;20236;-89
2021/12/04 05:21:25;;;;;;;4.30;3.53;;;;;;;-3.74;78.50;98556.47;5040134;28;20249;-93
2021/12/04 05:23:55;;;;;;;4.73;3.60;;;;;;;-3.71;78.77;98550.09;5039968;28;20225;-89
2021/12/04 05:26:26;;;;;;;4.77;3.50;;;;;;;-3.63;78.34;98552.75;5039353;28;20676;-92
2021/12/04 05:28:56;;;;;;;5.47;3.57;;;;;;;-3.62;78.00;98541.31;5024270;28;20229;-89
2021/12/04 05:31:22;;;;;;;4.93;3.90;;;;;;;-3.75;77.81;98528.66;5042283;28;20284;-95
2021/12/04 05:33:49;;;;;;;4.73;4.13;;;;;;;-3.72;77.46;98519.66;5057743;28;20232;-89
2021/12/04 05:36:17;;;;;;;4.97;3.87;;;;;;;-3.74;77.29;98511.97;5056258;28;20232;-95
2021/12/04 05:38:43;;;;;;;7.17;4.13;;;;;;;-3.64;77.19;98514.47;5059852;28;20231;-92
2021/12/04 05:41:12;;;;;;;5.60;4.03;;;;;;;-3.64;77.27;98510.03;5057674;28;20618;-91
2021/12/04 05:43:38;;;;;;;4.73;3.90;;;;;;;-3.55;77.33;98509.09;5043615;28;20535;-96
2021/12/04 05:46:28;;;;;;;5.97;4.13;;;;;;;-3.44;77.36;98520.25;5063142;28;20272;-86
2021/12/04 05:49:05;;;;;;;5.37;4.13;;;;;;;-3.44;77.69;98510.59;5045458;28;20581;-86
2021/12/04 05:54:04;;;;;;;4.37;3.80;;;;;;;-3.35;77.10;98514.06;5060654;28;20256;-95
2021/12/04 05:56:33;;;;;;;4.53;3.73;;;;;;;-3.32;77.77;98500.69;5063838;28;20221;-89
2021/12/04 05:59:00;;;;;;;4.97;3.80;;;;;;;-3.06;77.55;98495.31;5048633;28;20295;-85
2021/12/04 06:01:30;;;;;;;4.07;3.33;;;;;;;-2.94;77.87;98484.38;5031797;28;20280;-85
2021/12/04 06:03:57;;;;;;;4.80;3.63;;;;;;;-2.81;77.46;98479.50;5049858;28;20252;-85
2021/12/04 06:06:28;;;;;;;3.97;3.03;;;;;;;-2.60;77.24;98471.13;5036939;28;20217;-85
2021/12/04 06:08:55;;;;;;;3.97;3.33;;;;;;;-2.34;76.74;98492.75;5069455;28;20229;-85
2021/12/04 06:11:39;;;;;;;3.80;3.27;;;;;;;-2.14;76.33;98505.50;5070240;28;20252;-84
2021/12/04 06:14:07;;;;;;;5.93;4.00;;;;;;;-2.03;75.59;98484.16;5043208;28;20263;-84
2021/12/04 06:16:55;;;;;;;4.27;3.47;;;;;;;-1.73;74.09;98474.75;5069268;28;20237;-84
2021/12/04 06:22:37;;;;;;;4.30;2.70;;;;;;;-1.56;73.26;98479.75;5068886;28;20619;-84
2021/12/04 06:24:59;;;;;;;3.50;2.53;;;;;;;-1.34;72.46;98460.59;5054213;28;20297;-83
2021/12/04 06:27:26;;;;;;;2.70;2.50;;;;;;;-1.29;72.45;98446.13;5067959;28;20240;-84
2021/12/04 06:29:55;;;;;;;2.67;2.17;;;;;;;-1.07;72.10;98456.66;5054300;28;20216;-84
2021/12/04 06:32:24;;;;;;;2.80;2.50;;;;;;;-0.91;70.92;98451.28;5070667;28;20296;-84
2021/12/04 06:34:52;;;;;;;3.43;2.07;;;;;;;-0.73;69.73;98435.22;5069511;28;20304;-83
2021/12/04 06:37:28;;;;;;;2.60;2.10;;;;;;;-0.50;68.24;98443.88;5068953;28;20213;-83
2021/12/04 06:39:55;;;;;;;6.83;2.40;;;;;;;-0.23;66.84;98433.75;5068971;28;20681;-83
2021/12/04 06:42:22;;;;;;;3.00;2.30;;;;;;;-0.21;66.01;98437.03;5046322;23;20231;-84
2021/12/04 06:45:00;;;;;;;5.87;4.00;;;;;;;-0.12;65.17;98423.63;5009280;28;20263;-83
2021/12/04 06:47:37;;;;;;;6.00;5.30;;;;;;;0.18;65.22;98445.53;5032521;23;20234;-84
2021/12/04 06:50:13;;;;;;;5.20;4.40;;;;;;;0.24;64.52;98423.69;5016059;28;20210;-83
2021/12/04 06:52:45;;;;;;;57.97;34.00;;;;;;;0.53;63.86;98427.28;5017444;28;20220;-84
2021/12/04 06:55:38;;;;;;;142.27;85.17;;;;;;;0.51;65.00;98424.84;5017600;28;20326;-83
2021/12/04 06:58:15;;;;;;;129.70;90.37;;;;;;;0.54;66.14;98428.94;5032987;28;20199;-83
2021/12/04 07:00:50;;;;;;;135.77;92.20;;;;;;;0.50;65.36;98415.31;5029275;28;20236;-84
2021/12/04 07:03:33;;;;;;;73.43;53.27;;;;;;;0.68;65.77;98426.25;5011527;28;20230;-84
2021/12/04 07:06:03;;;;;;;21.47;19.17;;;;;;;0.66;65.53;98401.06;5007483;28;20231;-84
2021/12/04 07:08:33;;;;;;;6.50;5.90;;;;;;;0.69;65.63;98393.63;4996957;28;20199;-84
2021/12/04 07:11:06;;;;;;;5.13;4.70;;;;;;;0.85;64.88;98403.09;5027889;28;20226;-83
2021/12/04 07:13:35;;;;;;;3.30;2.80;;;;;;;1.07;63.43;98394.22;5029996;28;20234;-84
2021/12/04 07:16:08;;;;;;;3.60;2.60;;;;;;;1.08;62.44;98384.47;5030832;28;20290;-83
2021/12/04 07:18:38;;;;;;;3.93;2.90;;;;;;;1.13;62.11;98382.88;5032469;28;20301;-84
2021/12/04 07:21:05;;;;;;;4.57;3.40;;;;;;;1.30;61.73;98400.09;5007833;23;20222;-83
2021/12/04 07:23:42;;;;;;;3.67;3.00;;;;;;;1.37;61.64;98396.69;5034758;28;20266;-84
2021/12/04 07:26:12;;;;;;;2.87;2.53;;;;;;;1.54;61.27;98390.94;5031393;28;20840;-83
2021/12/04 07:28:40;;;;;;;3.60;2.80;;;;;;;1.74;60.18;98393.72;5000260;28;20222;-84
2021/12/04 07:31:08;;;;;;;3.77;3.20;;;;;;;1.75;59.51;98398.00;5025676;23;20327;-84
2021/12/04 07:33:38;;;;;;;3.90;3.20;;;;;;;1.76;59.91;98383.78;5056771;28;20213;-84
2021/12/04 07:36:09;;;;;;;4.10;3.33;;;;;;;1.82;60.36;98379.56;5074597;28;20189;-84
2021/12/04 07:39:06;;;;;;;3.60;3.10;;;;;;;1.92;59.95;98387.91;5072500;28;20235;-83
2021/12/04 07:42:34;;;;;;;4.13;3.40;;;;;;;2.02;59.76;98394.50;5149417;22;20224;-84
2021/12/04 07:45:11;;;;;;;5.03;4.17;;;;;;;2.10;59.72;98393.53;5061296;23;20242;-83
2021/12/04 07:48:44;;;;;;;9.30;8.40;;;;;;;2.16;59.61;98363.66;5168438;22;20287;-84
2021/12/04 07:52:29;;;;;;;5.50;4.40;;;;;;;2.35;59.16;98367.41;5165073;22;20245;-83
2021/12/04 07:55:13;;;;;;;6.70;4.47;;;;;;;2.36;59.37;98361.09;5003193;23;20227;-83
2021/12/04 07:58:16;;;;;;;4.37;3.53;;;;;;;2.55;57.95;98369.13;5035965;23;20222;-85
2021/12/04 08:01:22;;;;;;;4.77;3.13;;;;;;;2.57;57.51;98375.00;5170028;22;20236;-85
2021/12/04 08:04:31;;;;;;;3.50;3.17;;;;;;;2.57;57.09;98374.19;5062860;23;20302;-83
2021/12/04 08:07:10;;;;;;;4.80;3.80;;;;;;;2.68;56.80;98360.38;5076381;28;20177;-83
2021/12/04 08:09:41;;;;;;;4.60;4.10;;;;;;;2.76;56.59;98362.84;5066491;23;20213;-83
2021/12/04 08:12:10;;;;;;;6.30;5.70;;;;;;;2.78;56.13;98352.91;5030581;28;20206;-83
2021/12/04 08:14:45;;;;;;;5.33;4.17;;;;;;;2.88;56.29;98347.22;5056563;23;20214;-84
2021/12/04 08:17:26;;;;;;;6.60;6.00;;;;;;;2.85;55.87;98329.91;5043549;23;20236;-83
2021/12/04 08:19:57;;;;;;;5.20;4.47;;;;;;;3.01;55.19;98350.69;5041479;28;20241;-84
2021/12/04 08:22:34;;;;;;;4.30;3.40;;;;;;;3.15;55.98;98348.03;5058587;22;20237;-84
2021/12/04 08:25:22;;;;;;;6.07;4.57;;;;;;;3.24;57.36;98354.75;5044222;23;20232;-84
2021/12/04 08:28:18;;;;;;;5.47;4.00;;;;;;;3.18;57.61;98345.78;5216368;23;20285;-84
2021/12/04 08:30:49;;;;;;;4.27;3.60;;;;;;;3.25;58.18;98359.03;5030892;23;20242;-84
2021/12/04 08:33:24;;;;;;;5.27;4.10;;;;;;;3.30;57.93;98348.66;5042020;23;20230;-84
2021/12/04 08:35:58;;;;;;;4.80;4.10;;;;;;;3.52;57.90;98361.47;5026277;23;20214;-83
2021/12/04 08:38:50;;;;;;;4.70;4.20;;;;;;;3.64;57.58;98350.28;5052079;22;20222;-83
2021/12/04 08:41:31;;;;;;;7.20;4.27;;;;;;;3.75;57.36;98352.28;5039032;28;20295;-83
2021/12/04 08:44:00;;;;;;;5.93;4.60;;;;;;;3.82;57.20;98329.25;5025493;23;20268;-84
2021/12/04 08:46:34;;;;;;;7.37;6.03;;;;;;;4.02;56.35;98353.81;5152635;23;20269;-84
2021/12/04 08:49:32;;;;;;;8.47;6.57;;;;;;;3.90;56.25;98339.59;5061216;23;20285;-83
2021/12/04 08:52:57;;;;;;;10.83;7.47;;;;;;;4.13;56.42;98353.19;5056557;28;20189;-84
2021/12/04 08:56:04;;;;;;;7.27;5.87;;;;;;;4.20;56.23;98347.88;5029332;23;20281;-84
2021/12/04 08:59:05;;;;;;;4.70;4.30;;;;;;;4.09;55.24;98314.06;5065561;23;20236;-84
2021/12/04 09:01:53;;;;;;;6.67;4.60;;;;;;;4.38;54.42;98351.47;5057314;22;20519;-83
2021/12/04 09:04:46;;;;;;;5.30;4.17;;;;;;;4.50;54.85;98340.19;5017422;23;20426;-84
2021/12/04 09:07:51;;;;;;;4.40;3.20;;;;;;;4.53;53.59;98331.78;5011830;28;20204;-84
2021/12/04 09:13:28;;;;;;;4.70;3.70;;;;;;;4.75;52.89;98323.31;4992083;28;20231;-84
2021/12/04 09:16:00;;;;;;;5.97;4.10;;;;;;;4.84;52.89;98308.75;5036217;23;20234;-84
2021/12/04 09:18:47;;;;;;;4.67;3.90;;;;;;;4.82;52.34;98297.53;5024476;28;20210;-84
2021/12/04 09:21:27;;;;;;;3.73;2.90;;;;;;;4.97;51.94;98307.84;5041108;28;20190;-83
2021/12/04 09:24:16;;;;;;;2.83;2.40;;;;;;;4.90;51.75;98296.44;5072996;23;20229;-84
2021/12/04 09:27:20;;;;;;;3.27;2.57;;;;;;;4.85;51.56;98288.34;5057801;23;20218;-84
2021/12/04 10:02:12;;;;;;;8.20;5.77;;;;;;;6.48;46.88;98234.47;4998576;28;20633;-83
2021/12/04 10:24:26;;;;;;;5.37;3.30;;;;;;;6.41;46.64;98208.97;5047140;22;20645;-83
2021/12/04 10:35:29;;;;;;;3.27;2.63;;;;;;;6.78;45.91;98181.16;5051957;28;20233;-83
2021/12/04 10:38:06;;;;;;;4.00;3.60;;;;;;;6.91;45.79;98183.59;5051167;28;20255;-84
2021/12/04 10:41:02;;;;;;;3.27;2.60;;;;;;;6.96;45.50;98174.91;5049126;28;20225;-83
2021/12/04 10:43:32;;;;;;;5.20;3.30;;;;;;;7.14;44.73;98176.69;5050937;28;20229;-83
2021/12/04 10:46:13;;;;;;;3.23;2.93;;;;;;;7.28;44.44;98162.06;5053378;28;20237;-84
2021/12/04 10:49:01;;;;;;;3.20;2.60;;;;;;;7.53;43.94;98151.94;5068502;28;20694;-83
2021/12/04 10:51:51;;;;;;;2.90;2.60;;;;;;;7.76;42.88;98151.88;5070979;23;20221;-84
2021/12/04 10:54:27;;;;;;;3.57;3.13;;;;;;;8.14;42.34;98135.25;5052607;28;20249;-84
2021/12/04 11:03:06;;;;;;;6.00;4.30;;;;;;;8.73;39.92;98152.53;5068919;28;20253;-84
2021/12/04 11:28:10;;;;;;;3.20;2.67;;;;;;;8.51;38.95;98132.16;5030180;28;20245;-85
2021/12/04 11:42:05;;;;;;;2.07;1.97;;;;;;;8.32;37.71;98115.56;5035006;28;20201;-85
2021/12/04 11:44:45;;;;;;;2.37;2.13;;;;;;;8.24;38.14;98103.41;5011639;28;20222;-84
2021/12/04 11:47:13;;;;;;;2.37;2.17;;;;;;;8.22;37.55;98096.69;5026289;28;20462;-84
2021/12/04 11:49:44;;;;;;;2.90;1.90;;;;;;;8.30;38.16;98091.81;5011009;28;20229;-84
2021/12/04 11:52:19;;;;;;;2.20;2.00;;;;;;;8.28;36.97;98083.19;5027371;28;20284;-84
2021/12/04 11:54:58;;;;;;;2.53;1.83;;;;;;;8.39;36.91;98090.34;5025663;28;20247;-84
2021/12/04 11:57:35;;;;;;;2.43;2.10;;;;;;;8.32;37.50;98092.34;5029089;28;20668;-84
2021/12/04 12:00:33;;;;;;;2.20;2.00;;;;;;;8.37;37.39;98107.66;5011514;28;20242;-85
2021/12/04 12:03:25;;;;;;;2.70;2.30;;;;;;;8.29;37.92;98094.69;5010407;28;20310;-85
2021/12/04 12:06:09;;;;;;;3.00;2.70;;;;;;;8.19;38.42;98091.84;5025363;28;20250;-84
2021/12/04 12:08:43;;;;;;;14.70;12.40;;;;;;;8.27;38.02;98096.75;5027664;28;20607;-85
2021/12/04 12:11:34;;;;;;;9.77;8.60;;;;;;;8.09;38.69;98087.13;5029077;28;20232;-85
2021/12/04 12:14:10;;;;;;;29.17;24.23;;;;;;;8.24;39.19;98090.06;5026490;28;20227;-84
2021/12/04 12:17:02;;;;;;;18.67;14.87;;;;;;;8.24;39.32;98083.91;4996165;28;20325;-86
2021/12/04 12:19:41;;;;;;;43.40;38.67;;;;;;;8.10;39.87;98069.28;5026851;28;20242;-84
2021/12/04 12:22:36;;;;;;;9.43;8.50;;;;;;;8.07;39.87;98043.88;5009243;28;20296;-84
2021/12/04 12:25:29;;;;;;;3.43;3.13;;;;;;;8.11;39.83;98053.03;5011611;28;20203;-85
2021/12/04 12:37:27;;;;;;;2.90;2.40;;;;;;;7.81;40.65;98066.66;5008827;28;20241;-84
2021/12/04 12:39:57;;;;;;;2.93;2.40;;;;;;;7.80;40.79;98077.53;5044391;28;20246;-84
2021/12/04 12:42:41;;;;;;;3.50;2.93;;;;;;;7.76;40.04;98058.56;5029038;28;20305;-84
2021/12/04 12:45:27;;;;;;;3.30;2.90;;;;;;;7.57;41.29;98049.13;5046620;28;20234;-84
2021/12/04 12:48:13;;;;;;;3.20;2.90;;;;;;;7.38;41.29;98037.03;5028658;28;20255;-84
2021/12/04 12:51:10;;;;;;;3.67;2.97;;;;;;;7.33;41.08;98039.59;5029984;28;20245;-84
2021/12/04 12:53:45;;;;;;;3.03;2.73;;;;;;;7.20;41.97;98006.06;5049253;28;20222;-84
2021/12/04 12:56:16;;;;;;;4.57;3.37;;;;;;;7.24;42.15;97998.41;5062733;28;20214;-84
2021/12/04 12:59:00;;;;;;;4.10;3.70;;;;;;;7.20;42.07;98006.06;5031048;28;20233;-85
2021/12/04 13:13:46;;;;;;;3.47;2.80;;;;;;;6.90;43.00;98011.63;5028372;28;20223;-84
2021/12/04 13:16:31;;;;;;;3.87;2.90;;;;;;;7.00;43.14;98010.97;5036898;28;20517;-84
2021/12/04 13:19:09;;;;;;;4.43;3.20;;;;;;;6.83;43.65;97997.59;5048326;28;20226;-84
2021/12/04 13:21:52;;;;;;;4.30;3.40;;;;;;;6.78;44.24;98017.97;5032309;28;20226;-83
2021/12/04 13:24:36;;;;;;;4.23;2.90;;;;;;;6.70;43.91;98010.38;5031278;28;20222;-83
2021/12/04 13:29:54;;;;;;;4.10;3.70;;;;;;;6.45;43.82;98011.44;5049654;28;20213;-83
2021/12/04 13:32:39;;;;;;;3.60;3.30;;;;;;;6.18;44.79;98008.44;5060570;28;20279;-83
2021/12/04 13:35:22;;;;;;;3.07;2.77;;;;;;;6.07;45.19;97995.91;5029698;28;20224;-84
2021/12/04 13:38:00;;;;;;;3.53;3.17;;;;;;;6.03;45.18;98005.41;5053188;28;20237;-83
2021/12/04 13:40:31;;;;;;;4.20;3.20;;;;;;;5.92;45.27;98000.91;5049493;28;20236;-83
2021/12/04 13:43:26;;;;;;;4.03;3.47;;;;;;;5.77;45.36;97995.16;5051465;28;20170;-84
2021/12/04 13:46:21;;;;;;;4.03;3.30;;;;;;;5.93;46.08;98026.41;5050884;28;20660;-83
2021/12/04 13:49:10;;;;;;;4.30;3.23;;;;;;;5.87;46.43;98008.75;5138281;23;20265;-83
2021/12/04 14:01:17;;;;;;;5.70;4.40;;;;;;;5.73;48.96;98012.59;5096022;23;20247;-84
2021/12/04 14:07:07;;;;;;;4.53;4.07;;;;;;;5.71;48.59;98012.81;5371271;23;20247;-83
2021/12/04 14:09:50;;;;;;;7.40;6.07;;;;;;;5.54;48.60;97993.28;5031782;28;20237;-83
2021/12/04 14:12:58;;;;;;;6.37;5.03;;;;;;;5.62;49.28;98013.38;5045696;23;20243;-83
2021/12/04 14:15:59;;;;;;;5.47;3.90;;;;;;;5.50;49.70;98016.00;5011361;28;20241;-82
2021/12/04 14:18:48;;;;;;;4.20;3.80;;;;;;;5.25;48.37;97992.25;5013806;28;20199;-84
2021/12/04 14:22:01;;;;;;;4.47;3.93;;;;;;;4.96;49.72;97989.56;5012564;28;20223;-84
2021/12/04 14:25:21;;;;;;;4.80;4.30;;;;;;;4.87;50.82;97991.72;5012356;28;20252;-83
2021/12/04 14:28:34;;;;;;;5.43;4.13;;;;;;;4.87;50.51;98004.97;5013433;28;20203;-84
2021/12/04 14:31:25;;;;;;;4.87;4.17;;;;;;;4.73;50.82;98006.16;5002283;28;20235;-83
2021/12/04 14:34:33;;;;;;;6.80;4.67;;;;;;;4.75;51.28;98020.03;5012621;28;20223;-82
2021/12/04 14:37:28;;;;;;;6.07;4.57;;;;;;;4.67;51.35;98018.47;5068675;23;20229;-83
2021/12/04 14:40:32;;;;;;;6.07;4.63;;;;;;;4.53;51.54;98008.22;5042432;28;20201;-83
2021/12/04 14:43:07;;;;;;;5.43;4.13;;;;;;;4.47;52.56;98009.94;5071074;28;20223;-84
2021/12/04 14:45:58;;;;;;;6.07;4.63;;;;;;;4.48;52.66;98014.19;5043881;28;20225;-83
2021/12/04 14:48:51;;;;;;;5.43;4.40;;;;;;;4.42;53.46;98017.72;5075293;28;20224;-83
2021/12/04 14:51:29;;;;;;;5.30;4.37;;;;;;;4.50;53.44;98013.97;5075101;23;20293;-84
2021/12/04 14:54:14;;;;;;;16.13;11.63;;;;;;;4.27;54.14;97996.03;5045226;28;20229;-83
2021/12/04 14:57:02;;;;;;;10.13;9.13;;;;;;;4.25;54.25;98001.56;5044993;28;20233;-83
2021/12/04 14:59:42;;;;;;;7.27;5.80;;;;;;;4.33;54.26;98009.25;5057339;28;20231;-83
2021/12/04 15:02:23;;;;;;;17.93;16.03;;;;;;;4.25;54.61;98019.28;5034803;28;20256;-83
2021/12/04 15:04:52;;;;;;;7.37;6.50;;;;;;;4.11;54.70;98005.34;5077829;23;20226;-84
2021/12/04 15:07:24;;;;;;;7.57;6.87;;;;;;;4.12;55.27;98003.50;5037446;28;20201;-83
2021/12/04 15:10:36;;;;;;;8.17;7.07;;;;;;;4.09;56.03;97999.47;5069843;28;20217;-83
2021/12/04 15:13:23;;;;;;;10.37;8.07;;;;;;;4.00;56.01;98008.72;5069737;28;20233;-83
2021/12/04 15:15:57;;;;;;;6.53;5.50;;;;;;;4.08;56.10;98016.41;5052506;28;20193;-83
2021/12/04 15:18:50;;;;;;;8.57;6.70;;;;;;;4.10;55.89;98017.00;5054654;28;20216;-83
2021/12/04 15:21:39;;;;;;;7.97;6.70;;;;;;;3.99;56.09;98010.56;5051295;28;20240;-83
2021/12/04 15:24:14;;;;;;;8.77;7.00;;;;;;;3.93;56.73;98007.97;5060895;28;20246;-83
2021/12/04 15:26:43;;;;;;;8.07;7.10;;;;;;;3.86;56.50;98008.03;5070806;28;20209;-84
2021/12/04 15:29:21;;;;;;;9.33;6.90;;;;;;;3.88;56.38;98013.09;5053690;28;20245;-83
2021/12/04 15:32:04;;;;;;;9.47;8.47;;;;;;;3.88;56.60;98018.38;5054854;28;20244;-84